sensor_id;sensor_type;location;lat;lon;timestamp;temperature;humidity
18260;DHT22;9256;52.236;5.712;2023-06-14T00:00:47;18.50;99.90
18260;DHT22;9256;52.236;5.712;2023-06-14T00:03:14;18.50;99.90
18260;DHT22;9256;52.236;5.712;2023-06-14T00:05:43;18.60;99.90
18260;DHT22;9256;52.236;5.712;2023-06-14T00:08:12;18.50;99.90
18260;DHT22;9256;52.236;5.712;2023-06-14T00:10:41;18.50;99.90
18260;DHT22;9256;52.236;5.712;2023-06-14T00:13:09;18.40;99.90
18260;DHT22;9256;52.236;5.712;2023-06-14T00:15:36;18.40;99.90
18260;DHT22;9256;52.236;5.712;2023-06-14T00:18:04;18.50;99.90
18260;DHT22;9256;52.236;5.712;2023-06-14T00:20:32;18.40;99.90
18260;DHT22;9256;52.236;5.712;2023-06-14T00:23:00;18.30;99.90
18260;DHT22;9256;52.236;5.712;2023-06-14T00:25:27;18.40;99.90
18260;DHT22;9256;52.236;5.712;2023-06-14T00:27:55;18.30;99.90
18260;DHT22;9256;52.236;5.712;2023-06-14T00:30:24;18.20;99.90
18260;DHT22;9256;52.236;5.712;2023-06-14T00:32:51;18.30;99.90
18260;DHT22;9256;52.236;5.712;2023-06-14T00:35:18;18.30;99.90
18260;DHT22;9256;52.236;5.712;2023-06-14T00:37:45;18.20;99.90
18260;DHT22;9256;52.236;5.712;2023-06-14T00:40:12;18.20;99.90
18260;DHT22;9256;52.236;5.712;2023-06-14T00:42:38;18.10;99.90
18260;DHT22;9256;52.236;5.712;2023-06-14T00:45:06;18.10;99.90
18260;DHT22;9256;52.236;5.712;2023-06-14T00:47:35;18.10;99.90
18260;DHT22;9256;52.236;5.712;2023-06-14T00:50:07;17.90;99.90
18260;DHT22;9256;52.236;5.712;2023-06-14T00:52:34;17.80;99.90
18260;DHT22;9256;52.236;5.712;2023-06-14T00:55:01;17.80;99.90
18260;DHT22;9256;52.236;5.712;2023-06-14T00:57:28;17.80;99.90
18260;DHT22;9256;52.236;5.712;2023-06-14T00:59:56;17.60;99.90
18260;DHT22;9256;52.236;5.712;2023-06-14T01:02:23;17.70;99.90
18260;DHT22;9256;52.236;5.712;2023-06-14T01:04:53;17.60;99.90
18260;DHT22;9256;52.236;5.712;2023-06-14T01:07:28;17.50;99.90
18260;DHT22;9256;52.236;5.712;2023-06-14T01:10:09;17.40;99.90
18260;DHT22;9256;52.236;5.712;2023-06-14T01:12:58;17.50;99.90
18260;DHT22;9256;52.236;5.712;2023-06-14T01:15:27;17.40;99.90
18260;DHT22;9256;52.236;5.712;2023-06-14T01:17:56;17.50;99.90
18260;DHT22;9256;52.236;5.712;2023-06-14T01:20:31;17.50;99.90
18260;DHT22;9256;52.236;5.712;2023-06-14T01:23:00;17.40;99.90
18260;DHT22;9256;52.236;5.712;2023-06-14T01:25:27;17.40;99.90
18260;DHT22;9256;52.236;5.712;2023-06-14T01:27:58;17.30;99.90
18260;DHT22;9256;52.236;5.712;2023-06-14T01:30:26;17.30;99.90
18260;DHT22;9256;52.236;5.712;2023-06-14T01:32:54;17.10;99.90
18260;DHT22;9256;52.236;5.712;2023-06-14T01:35:22;17.10;99.90
18260;DHT22;9256;52.236;5.712;2023-06-14T01:37:49;17.10;99.90
18260;DHT22;9256;52.236;5.712;2023-06-14T01:40:20;17.10;99.90
18260;DHT22;9256;52.236;5.712;2023-06-14T01:42:50;17.10;99.90
18260;DHT22;9256;52.236;5.712;2023-06-14T01:45:17;17.00;99.90
18260;DHT22;9256;52.236;5.712;2023-06-14T01:47:45;17.00;99.90
18260;DHT22;9256;52.236;5.712;2023-06-14T01:50:13;16.90;99.90
18260;DHT22;9256;52.236;5.712;2023-06-14T01:52:40;16.90;99.90
18260;DHT22;9256;52.236;5.712;2023-06-14T01:55:07;16.90;99.90
18260;DHT22;9256;52.236;5.712;2023-06-14T01:57:36;16.90;99.90
18260;DHT22;9256;52.236;5.712;2023-06-14T02:00:03;16.80;99.90
18260;DHT22;9256;52.236;5.712;2023-06-14T02:02:33;16.80;99.90
18260;DHT22;9256;52.236;5.712;2023-06-14T02:05:01;16.80;99.90
18260;DHT22;9256;52.236;5.712;2023-06-14T02:07:28;16.70;99.90
18260;DHT22;9256;52.236;5.712;2023-06-14T02:09:55;16.70;99.90
18260;DHT22;9256;52.236;5.712;2023-06-14T02:12:21;16.60;99.90
18260;DHT22;9256;52.236;5.712;2023-06-14T02:14:50;16.50;99.90
18260;DHT22;9256;52.236;5.712;2023-06-14T02:17:17;16.50;99.90
18260;DHT22;9256;52.236;5.712;2023-06-14T02:19:44;16.40;99.90
18260;DHT22;9256;52.236;5.712;2023-06-14T02:22:10;16.30;99.90
18260;DHT22;9256;52.236;5.712;2023-06-14T02:24:40;16.30;99.90
18260;DHT22;9256;52.236;5.712;2023-06-14T02:27:07;16.30;99.90
18260;DHT22;9256;52.236;5.712;2023-06-14T02:29:35;16.30;99.90
18260;DHT22;9256;52.236;5.712;2023-06-14T02:32:04;16.40;99.90
18260;DHT22;9256;52.236;5.712;2023-06-14T02:34:32;16.40;99.90
18260;DHT22;9256;52.236;5.712;2023-06-14T02:36:59;16.20;99.90
18260;DHT22;9256;52.236;5.712;2023-06-14T02:39:28;16.00;99.90
18260;DHT22;9256;52.236;5.712;2023-06-14T02:41:55;15.90;99.90
18260;DHT22;9256;52.236;5.712;2023-06-14T02:44:25;16.10;99.90
18260;DHT22;9256;52.236;5.712;2023-06-14T02:46:53;16.00;99.90
18260;DHT22;9256;52.236;5.712;2023-06-14T02:49:22;15.80;99.90
18260;DHT22;9256;52.236;5.712;2023-06-14T02:51:49;15.80;99.90
18260;DHT22;9256;52.236;5.712;2023-06-14T02:54:15;15.60;99.90
18260;DHT22;9256;52.236;5.712;2023-06-14T02:56:42;15.60;99.90
18260;DHT22;9256;52.236;5.712;2023-06-14T02:59:09;15.50;99.90
18260;DHT22;9256;52.236;5.712;2023-06-14T03:01:36;15.50;99.90
18260;DHT22;9256;52.236;5.712;2023-06-14T03:04:06;15.50;99.90
18260;DHT22;9256;52.236;5.712;2023-06-14T03:06:34;15.50;99.90
18260;DHT22;9256;52.236;5.712;2023-06-14T03:09:02;15.40;99.90
18260;DHT22;9256;52.236;5.712;2023-06-14T03:11:30;15.50;99.90
18260;DHT22;9256;52.236;5.712;2023-06-14T03:13:57;15.50;99.90
18260;DHT22;9256;52.236;5.712;2023-06-14T03:16:24;15.50;99.90
18260;DHT22;9256;52.236;5.712;2023-06-14T03:18:54;15.40;99.90
18260;DHT22;9256;52.236;5.712;2023-06-14T03:21:21;15.40;99.90
18260;DHT22;9256;52.236;5.712;2023-06-14T03:23:50;15.30;99.90
18260;DHT22;9256;52.236;5.712;2023-06-14T03:26:16;15.30;99.90
18260;DHT22;9256;52.236;5.712;2023-06-14T03:28:44;15.20;99.90
18260;DHT22;9256;52.236;5.712;2023-06-14T03:31:11;15.20;99.90
18260;DHT22;9256;52.236;5.712;2023-06-14T03:33:38;15.20;99.90
18260;DHT22;9256;52.236;5.712;2023-06-14T03:36:06;15.30;99.90
18260;DHT22;9256;52.236;5.712;2023-06-14T03:38:33;15.40;99.90
18260;DHT22;9256;52.236;5.712;2023-06-14T03:41:02;15.50;99.90
18260;DHT22;9256;52.236;5.712;2023-06-14T03:43:29;15.50;99.90
18260;DHT22;9256;52.236;5.712;2023-06-14T03:45:56;15.40;99.90
18260;DHT22;9256;52.236;5.712;2023-06-14T03:48:23;15.40;99.90
18260;DHT22;9256;52.236;5.712;2023-06-14T03:50:51;15.30;99.90
18260;DHT22;9256;52.236;5.712;2023-06-14T03:53:17;15.20;99.90
18260;DHT22;9256;52.236;5.712;2023-06-14T03:55:46;15.20;99.90
18260;DHT22;9256;52.236;5.712;2023-06-14T03:58:15;15.30;99.90
18260;DHT22;9256;52.236;5.712;2023-06-14T04:00:42;15.20;99.90
18260;DHT22;9256;52.236;5.712;2023-06-14T04:03:10;15.10;99.90
18260;DHT22;9256;52.236;5.712;2023-06-14T04:05:38;15.10;99.90
18260;DHT22;9256;52.236;5.712;2023-06-14T04:08:07;15.30;99.90
18260;DHT22;9256;52.236;5.712;2023-06-14T04:10:35;15.40;99.90
18260;DHT22;9256;52.236;5.712;2023-06-14T04:13:02;15.50;99.90
18260;DHT22;9256;52.236;5.712;2023-06-14T04:15:31;15.60;99.90
18260;DHT22;9256;52.236;5.712;2023-06-14T04:17:58;15.50;99.90
18260;DHT22;9256;52.236;5.712;2023-06-14T04:20:26;15.60;99.90
18260;DHT22;9256;52.236;5.712;2023-06-14T04:22:53;15.70;99.90
18260;DHT22;9256;52.236;5.712;2023-06-14T04:25:22;15.60;99.90
18260;DHT22;9256;52.236;5.712;2023-06-14T04:27:51;15.60;99.90
18260;DHT22;9256;52.236;5.712;2023-06-14T04:30:17;15.70;99.90
18260;DHT22;9256;52.236;5.712;2023-06-14T04:32:46;15.70;99.90
18260;DHT22;9256;52.236;5.712;2023-06-14T04:35:13;16.00;99.90
18260;DHT22;9256;52.236;5.712;2023-06-14T04:37:40;15.90;99.90
18260;DHT22;9256;52.236;5.712;2023-06-14T04:40:10;16.00;99.90
18260;DHT22;9256;52.236;5.712;2023-06-14T04:42:37;16.00;99.90
18260;DHT22;9256;52.236;5.712;2023-06-14T04:45:07;15.90;99.90
18260;DHT22;9256;52.236;5.712;2023-06-14T04:47:35;16.00;99.90
18260;DHT22;9256;52.236;5.712;2023-06-14T04:50:04;16.00;99.90
18260;DHT22;9256;52.236;5.712;2023-06-14T04:52:32;16.20;99.90
18260;DHT22;9256;52.236;5.712;2023-06-14T04:55:01;16.30;99.90
18260;DHT22;9256;52.236;5.712;2023-06-14T04:57:28;16.20;99.90
18260;DHT22;9256;52.236;5.712;2023-06-14T04:59:56;16.30;99.90
18260;DHT22;9256;52.236;5.712;2023-06-14T05:02:23;16.30;99.90
18260;DHT22;9256;52.236;5.712;2023-06-14T05:04:51;16.50;99.90
18260;DHT22;9256;52.236;5.712;2023-06-14T05:07:20;16.50;99.90
18260;DHT22;9256;52.236;5.712;2023-06-14T05:09:49;16.60;99.90
18260;DHT22;9256;52.236;5.712;2023-06-14T05:12:16;16.70;99.90
18260;DHT22;9256;52.236;5.712;2023-06-14T05:14:44;16.80;99.90
18260;DHT22;9256;52.236;5.712;2023-06-14T05:17:11;16.70;99.90
18260;DHT22;9256;52.236;5.712;2023-06-14T05:19:38;16.80;99.90
18260;DHT22;9256;52.236;5.712;2023-06-14T05:22:05;16.70;99.90
18260;DHT22;9256;52.236;5.712;2023-06-14T05:24:34;16.80;99.90
18260;DHT22;9256;52.236;5.712;2023-06-14T05:27:01;17.00;99.90
18260;DHT22;9256;52.236;5.712;2023-06-14T05:29:30;17.00;99.90
18260;DHT22;9256;52.236;5.712;2023-06-14T05:31:57;17.10;99.90
18260;DHT22;9256;52.236;5.712;2023-06-14T05:34:24;17.10;99.90
18260;DHT22;9256;52.236;5.712;2023-06-14T05:36:51;17.10;99.90
18260;DHT22;9256;52.236;5.712;2023-06-14T05:39:18;17.30;99.90
18260;DHT22;9256;52.236;5.712;2023-06-14T05:41:48;17.30;99.90
18260;DHT22;9256;52.236;5.712;2023-06-14T05:44:15;17.40;99.90
18260;DHT22;9256;52.236;5.712;2023-06-14T05:46:43;17.50;99.90
18260;DHT22;9256;52.236;5.712;2023-06-14T05:49:10;17.40;99.90
18260;DHT22;9256;52.236;5.712;2023-06-14T05:51:37;17.60;99.90
18260;DHT22;9256;52.236;5.712;2023-06-14T05:54:04;17.80;99.90
18260;DHT22;9256;52.236;5.712;2023-06-14T05:56:31;17.70;99.90
18260;DHT22;9256;52.236;5.712;2023-06-14T05:58:59;17.70;99.90
18260;DHT22;9256;52.236;5.712;2023-06-14T06:01:29;17.80;99.90
18260;DHT22;9256;52.236;5.712;2023-06-14T06:03:56;17.90;99.90
18260;DHT22;9256;52.236;5.712;2023-06-14T06:06:23;17.90;99.90
18260;DHT22;9256;52.236;5.712;2023-06-14T06:08:50;18.20;99.90
18260;DHT22;9256;52.236;5.712;2023-06-14T06:11:17;18.30;99.90
18260;DHT22;9256;52.236;5.712;2023-06-14T06:13:44;18.50;99.90
18260;DHT22;9256;52.236;5.712;2023-06-14T06:16:12;18.60;99.90
18260;DHT22;9256;52.236;5.712;2023-06-14T06:18:39;18.70;99.90
18260;DHT22;9256;52.236;5.712;2023-06-14T06:21:06;18.90;99.90
18260;DHT22;9256;52.236;5.712;2023-06-14T06:23:33;19.00;99.90
18260;DHT22;9256;52.236;5.712;2023-06-14T06:26:01;19.10;99.90
18260;DHT22;9256;52.236;5.712;2023-06-14T06:28:28;19.10;99.90
18260;DHT22;9256;52.236;5.712;2023-06-14T06:30:55;19.10;99.90
18260;DHT22;9256;52.236;5.712;2023-06-14T06:33:23;19.10;99.90
18260;DHT22;9256;52.236;5.712;2023-06-14T06:35:50;19.30;99.90
18260;DHT22;9256;52.236;5.712;2023-06-14T06:38:17;19.50;99.90
18260;DHT22;9256;52.236;5.712;2023-06-14T06:40:45;19.70;99.90
18260;DHT22;9256;52.236;5.712;2023-06-14T06:43:12;19.90;99.90
18260;DHT22;9256;52.236;5.712;2023-06-14T06:45:39;19.90;99.90
18260;DHT22;9256;52.236;5.712;2023-06-14T06:48:06;20.00;99.90
18260;DHT22;9256;52.236;5.712;2023-06-14T06:50:36;20.10;99.90
18260;DHT22;9256;52.236;5.712;2023-06-14T06:53:03;20.20;99.90
18260;DHT22;9256;52.236;5.712;2023-06-14T06:55:32;20.50;99.90
18260;DHT22;9256;52.236;5.712;2023-06-14T06:57:59;20.60;99.90
18260;DHT22;9256;52.236;5.712;2023-06-14T07:00:26;20.60;99.90
18260;DHT22;9256;52.236;5.712;2023-06-14T07:02:53;20.80;99.90
18260;DHT22;9256;52.236;5.712;2023-06-14T07:05:20;20.90;99.90
18260;DHT22;9256;52.236;5.712;2023-06-14T07:07:49;20.90;99.90
18260;DHT22;9256;52.236;5.712;2023-06-14T07:10:15;21.10;99.90
18260;DHT22;9256;52.236;5.712;2023-06-14T07:12:42;21.20;99.90
18260;DHT22;9256;52.236;5.712;2023-06-14T07:15:10;21.30;99.90
18260;DHT22;9256;52.236;5.712;2023-06-14T07:17:37;21.40;99.90
18260;DHT22;9256;52.236;5.712;2023-06-14T07:20:05;21.40;99.90
18260;DHT22;9256;52.236;5.712;2023-06-14T07:22:39;21.50;99.90
18260;DHT22;9256;52.236;5.712;2023-06-14T07:25:09;21.60;99.90
18260;DHT22;9256;52.236;5.712;2023-06-14T07:27:38;21.70;99.90
18260;DHT22;9256;52.236;5.712;2023-06-14T07:30:07;21.80;99.90
18260;DHT22;9256;52.236;5.712;2023-06-14T07:32:34;21.90;99.90
18260;DHT22;9256;52.236;5.712;2023-06-14T07:35:01;21.90;99.90
18260;DHT22;9256;52.236;5.712;2023-06-14T07:37:28;22.00;99.90
18260;DHT22;9256;52.236;5.712;2023-06-14T07:39:56;22.30;99.90
18260;DHT22;9256;52.236;5.712;2023-06-14T07:42:24;22.40;99.90
18260;DHT22;9256;52.236;5.712;2023-06-14T07:44:51;22.20;99.90
18260;DHT22;9256;52.236;5.712;2023-06-14T07:47:19;22.00;99.90
18260;DHT22;9256;52.236;5.712;2023-06-14T07:49:46;22.20;99.90
18260;DHT22;9256;52.236;5.712;2023-06-14T07:52:13;22.50;99.90
18260;DHT22;9256;52.236;5.712;2023-06-14T07:54:40;22.80;99.90
18260;DHT22;9256;52.236;5.712;2023-06-14T07:57:07;23.00;99.90
18260;DHT22;9256;52.236;5.712;2023-06-14T07:59:35;23.10;99.90
18260;DHT22;9256;52.236;5.712;2023-06-14T08:02:02;23.10;99.90
18260;DHT22;9256;52.236;5.712;2023-06-14T08:04:29;23.00;99.90
18260;DHT22;9256;52.236;5.712;2023-06-14T08:06:56;23.20;99.90
18260;DHT22;9256;52.236;5.712;2023-06-14T08:09:23;23.10;99.90
18260;DHT22;9256;52.236;5.712;2023-06-14T08:11:50;23.20;99.90
18260;DHT22;9256;52.236;5.712;2023-06-14T08:14:17;23.40;99.90
18260;DHT22;9256;52.236;5.712;2023-06-14T08:16:46;23.60;99.90
18260;DHT22;9256;52.236;5.712;2023-06-14T08:19:13;23.80;99.90
18260;DHT22;9256;52.236;5.712;2023-06-14T08:21:42;24.00;99.90
18260;DHT22;9256;52.236;5.712;2023-06-14T08:24:10;23.70;99.90
18260;DHT22;9256;52.236;5.712;2023-06-14T08:26:38;23.80;99.90
18260;DHT22;9256;52.236;5.712;2023-06-14T08:29:05;23.90;99.90
18260;DHT22;9256;52.236;5.712;2023-06-14T08:31:32;23.90;99.90
18260;DHT22;9256;52.236;5.712;2023-06-14T08:34:00;24.00;99.90
18260;DHT22;9256;52.236;5.712;2023-06-14T08:36:27;24.00;99.90
18260;DHT22;9256;52.236;5.712;2023-06-14T08:38:54;24.00;99.90
18260;DHT22;9256;52.236;5.712;2023-06-14T08:41:22;24.20;99.90
18260;DHT22;9256;52.236;5.712;2023-06-14T08:43:50;24.40;99.90
18260;DHT22;9256;52.236;5.712;2023-06-14T08:46:17;24.60;99.90
18260;DHT22;9256;52.236;5.712;2023-06-14T08:48:46;24.60;99.90
18260;DHT22;9256;52.236;5.712;2023-06-14T08:51:18;24.80;99.90
18260;DHT22;9256;52.236;5.712;2023-06-14T08:53:52;24.50;99.90
18260;DHT22;9256;52.236;5.712;2023-06-14T08:56:20;24.70;99.90
18260;DHT22;9256;52.236;5.712;2023-06-14T08:58:49;24.90;99.90
18260;DHT22;9256;52.236;5.712;2023-06-14T09:01:16;24.90;99.90
18260;DHT22;9256;52.236;5.712;2023-06-14T09:03:43;24.90;99.90
18260;DHT22;9256;52.236;5.712;2023-06-14T09:06:11;25.10;99.90
18260;DHT22;9256;52.236;5.712;2023-06-14T09:08:43;25.10;99.90
18260;DHT22;9256;52.236;5.712;2023-06-14T09:11:11;24.70;99.90
18260;DHT22;9256;52.236;5.712;2023-06-14T09:13:38;24.90;99.90
18260;DHT22;9256;52.236;5.712;2023-06-14T09:16:06;24.50;99.90
18260;DHT22;9256;52.236;5.712;2023-06-14T09:18:36;24.70;99.90
18260;DHT22;9256;52.236;5.712;2023-06-14T09:21:05;24.90;99.90
18260;DHT22;9256;52.236;5.712;2023-06-14T09:23:35;25.10;99.90
18260;DHT22;9256;52.236;5.712;2023-06-14T09:26:08;25.20;99.90
18260;DHT22;9256;52.236;5.712;2023-06-14T09:28:36;25.40;99.90
18260;DHT22;9256;52.236;5.712;2023-06-14T09:31:03;25.40;99.90
18260;DHT22;9256;52.236;5.712;2023-06-14T09:33:31;25.10;99.90
18260;DHT22;9256;52.236;5.712;2023-06-14T09:35:58;24.90;99.90
18260;DHT22;9256;52.236;5.712;2023-06-14T09:38:25;25.00;99.90
18260;DHT22;9256;52.236;5.712;2023-06-14T09:40:54;25.10;99.90
18260;DHT22;9256;52.236;5.712;2023-06-14T09:43:23;25.30;99.90
18260;DHT22;9256;52.236;5.712;2023-06-14T09:45:54;25.40;99.90
18260;DHT22;9256;52.236;5.712;2023-06-14T09:48:21;25.10;99.90
18260;DHT22;9256;52.236;5.712;2023-06-14T09:50:50;24.70;99.90
18260;DHT22;9256;52.236;5.712;2023-06-14T09:53:20;24.90;99.90
18260;DHT22;9256;52.236;5.712;2023-06-14T09:55:49;25.20;99.90
18260;DHT22;9256;52.236;5.712;2023-06-14T09:58:19;25.20;99.90
18260;DHT22;9256;52.236;5.712;2023-06-14T10:00:50;25.30;99.90
18260;DHT22;9256;52.236;5.712;2023-06-14T10:03:24;25.50;99.90
18260;DHT22;9256;52.236;5.712;2023-06-14T10:05:51;25.30;99.90
18260;DHT22;9256;52.236;5.712;2023-06-14T10:08:19;25.70;99.90
18260;DHT22;9256;52.236;5.712;2023-06-14T10:10:47;25.90;99.90
18260;DHT22;9256;52.236;5.712;2023-06-14T10:13:14;26.30;99.90
18260;DHT22;9256;52.236;5.712;2023-06-14T10:15:50;25.90;99.90
18260;DHT22;9256;52.236;5.712;2023-06-14T10:18:26;25.50;99.90
18260;DHT22;9256;52.236;5.712;2023-06-14T10:21:02;25.30;99.90
18260;DHT22;9256;52.236;5.712;2023-06-14T10:23:32;25.00;99.90
18260;DHT22;9256;52.236;5.712;2023-06-14T10:26:02;25.50;99.90
18260;DHT22;9256;52.236;5.712;2023-06-14T10:28:29;25.80;99.90
18260;DHT22;9256;52.236;5.712;2023-06-14T10:31:05;26.10;99.90
18260;DHT22;9256;52.236;5.712;2023-06-14T10:33:34;26.20;99.90
18260;DHT22;9256;52.236;5.712;2023-06-14T10:36:08;26.20;99.90
18260;DHT22;9256;52.236;5.712;2023-06-14T10:38:37;26.30;99.90
18260;DHT22;9256;52.236;5.712;2023-06-14T10:41:04;25.90;99.90
18260;DHT22;9256;52.236;5.712;2023-06-14T10:43:32;25.50;99.90
18260;DHT22;9256;52.236;5.712;2023-06-14T10:46:15;25.40;99.90
18260;DHT22;9256;52.236;5.712;2023-06-14T10:48:44;25.70;99.90
18260;DHT22;9256;52.236;5.712;2023-06-14T10:51:16;26.00;99.90
18260;DHT22;9256;52.236;5.712;2023-06-14T10:53:46;26.40;99.90
18260;DHT22;9256;52.236;5.712;2023-06-14T10:56:24;26.40;99.90
18260;DHT22;9256;52.236;5.712;2023-06-14T10:58:53;26.30;99.90
18260;DHT22;9256;52.236;5.712;2023-06-14T11:01:32;25.80;99.90
18260;DHT22;9256;52.236;5.712;2023-06-14T11:04:12;25.60;99.90
18260;DHT22;9256;52.236;5.712;2023-06-14T11:06:47;25.20;99.90
18260;DHT22;9256;52.236;5.712;2023-06-14T11:09:50;25.30;99.90
18260;DHT22;9256;52.236;5.712;2023-06-14T11:12:21;25.60;99.90
18260;DHT22;9256;52.236;5.712;2023-06-14T11:14:48;25.40;99.90
18260;DHT22;9256;52.236;5.712;2023-06-14T11:17:16;25.40;99.90
18260;DHT22;9256;52.236;5.712;2023-06-14T11:19:44;25.30;99.90
18260;DHT22;9256;52.236;5.712;2023-06-14T11:22:11;25.70;99.90
18260;DHT22;9256;52.236;5.712;2023-06-14T11:24:40;26.00;99.90
18260;DHT22;9256;52.236;5.712;2023-06-14T11:27:07;26.30;99.90
18260;DHT22;9256;52.236;5.712;2023-06-14T11:29:34;26.10;99.90
18260;DHT22;9256;52.236;5.712;2023-06-14T11:32:01;26.50;99.90
18260;DHT22;9256;52.236;5.712;2023-06-14T11:34:28;26.40;99.90
18260;DHT22;9256;52.236;5.712;2023-06-14T11:36:56;26.10;99.90
18260;DHT22;9256;52.236;5.712;2023-06-14T11:39:24;26.20;99.90
18260;DHT22;9256;52.236;5.712;2023-06-14T11:41:52;26.40;99.90
18260;DHT22;9256;52.236;5.712;2023-06-14T11:44:20;26.30;99.90
18260;DHT22;9256;52.236;5.712;2023-06-14T11:46:47;26.70;99.90
18260;DHT22;9256;52.236;5.712;2023-06-14T11:49:16;27.00;99.90
18260;DHT22;9256;52.236;5.712;2023-06-14T11:51:43;27.20;99.90
18260;DHT22;9256;52.236;5.712;2023-06-14T11:54:12;27.70;99.90
18260;DHT22;9256;52.236;5.712;2023-06-14T11:56:41;27.90;99.90
18260;DHT22;9256;52.236;5.712;2023-06-14T11:59:09;27.20;99.90
18260;DHT22;9256;52.236;5.712;2023-06-14T12:01:36;27.30;99.90
18260;DHT22;9256;52.236;5.712;2023-06-14T12:04:04;27.20;99.90
18260;DHT22;9256;52.236;5.712;2023-06-14T12:06:31;27.30;99.90
18260;DHT22;9256;52.236;5.712;2023-06-14T12:09:03;27.50;99.90
18260;DHT22;9256;52.236;5.712;2023-06-14T12:11:37;27.90;99.90
18260;DHT22;9256;52.236;5.712;2023-06-14T12:14:08;28.30;99.90
18260;DHT22;9256;52.236;5.712;2023-06-14T12:16:38;28.00;99.90
18260;DHT22;9256;52.236;5.712;2023-06-14T12:19:11;28.40;99.90
18260;DHT22;9256;52.236;5.712;2023-06-14T12:21:39;28.70;99.90
18260;DHT22;9256;52.236;5.712;2023-06-14T12:24:08;28.70;99.90
18260;DHT22;9256;52.236;5.712;2023-06-14T12:26:39;28.90;99.90
18260;DHT22;9256;52.236;5.712;2023-06-14T12:29:07;29.20;99.90
18260;DHT22;9256;52.236;5.712;2023-06-14T12:31:34;29.20;99.90
18260;DHT22;9256;52.236;5.712;2023-06-14T12:34:01;29.10;99.90
18260;DHT22;9256;52.236;5.712;2023-06-14T12:36:28;28.90;99.90
18260;DHT22;9256;52.236;5.712;2023-06-14T12:38:55;29.20;99.90
18260;DHT22;9256;52.236;5.712;2023-06-14T12:41:22;29.40;99.90
18260;DHT22;9256;52.236;5.712;2023-06-14T12:43:53;28.80;99.90
18260;DHT22;9256;52.236;5.712;2023-06-14T12:46:20;28.90;99.90
18260;DHT22;9256;52.236;5.712;2023-06-14T12:48:47;28.50;99.90
18260;DHT22;9256;52.236;5.712;2023-06-14T12:51:14;28.80;99.90
18260;DHT22;9256;52.236;5.712;2023-06-14T12:53:41;28.90;99.90
18260;DHT22;9256;52.236;5.712;2023-06-14T12:56:08;29.00;99.90
18260;DHT22;9256;52.236;5.712;2023-06-14T12:58:35;29.40;99.90
18260;DHT22;9256;52.236;5.712;2023-06-14T13:01:03;29.50;99.90
18260;DHT22;9256;52.236;5.712;2023-06-14T13:03:30;28.80;99.90
18260;DHT22;9256;52.236;5.712;2023-06-14T13:05:59;28.50;99.90
18260;DHT22;9256;52.236;5.712;2023-06-14T13:08:26;29.70;99.90
18260;DHT22;9256;52.236;5.712;2023-06-14T13:10:53;29.00;99.90
18260;DHT22;9256;52.236;5.712;2023-06-14T13:13:20;28.80;99.90
18260;DHT22;9256;52.236;5.712;2023-06-14T13:15:47;28.90;99.90
18260;DHT22;9256;52.236;5.712;2023-06-14T13:18:16;29.60;99.90
18260;DHT22;9256;52.236;5.712;2023-06-14T13:20:45;29.50;99.90
18260;DHT22;9256;52.236;5.712;2023-06-14T13:23:12;30.00;99.90
18260;DHT22;9256;52.236;5.712;2023-06-14T13:25:39;29.70;99.90
18260;DHT22;9256;52.236;5.712;2023-06-14T13:28:06;29.60;99.90
18260;DHT22;9256;52.236;5.712;2023-06-14T13:30:33;29.50;99.90
18260;DHT22;9256;52.236;5.712;2023-06-14T13:33:00;29.80;99.90
18260;DHT22;9256;52.236;5.712;2023-06-14T13:35:31;30.60;99.90
18260;DHT22;9256;52.236;5.712;2023-06-14T13:37:58;29.40;99.90
18260;DHT22;9256;52.236;5.712;2023-06-14T13:40:25;28.90;99.90
18260;DHT22;9256;52.236;5.712;2023-06-14T13:42:52;29.30;99.90
18260;DHT22;9256;52.236;5.712;2023-06-14T13:45:19;28.80;99.90
18260;DHT22;9256;52.236;5.712;2023-06-14T13:47:46;29.00;99.90
18260;DHT22;9256;52.236;5.712;2023-06-14T13:50:14;29.60;99.90
18260;DHT22;9256;52.236;5.712;2023-06-14T13:52:43;29.50;99.90
18260;DHT22;9256;52.236;5.712;2023-06-14T13:55:09;30.10;99.90
18260;DHT22;9256;52.236;5.712;2023-06-14T13:57:36;29.60;99.90
18260;DHT22;9256;52.236;5.712;2023-06-14T14:00:04;29.50;99.90
18260;DHT22;9256;52.236;5.712;2023-06-14T14:02:31;29.90;99.90
18260;DHT22;9256;52.236;5.712;2023-06-14T14:04:58;30.50;99.90
18260;DHT22;9256;52.236;5.712;2023-06-14T14:07:25;30.00;99.90
18260;DHT22;9256;52.236;5.712;2023-06-14T14:09:55;29.70;99.90
18260;DHT22;9256;52.236;5.712;2023-06-14T14:12:23;29.80;99.90
18260;DHT22;9256;52.236;5.712;2023-06-14T14:14:50;30.50;99.90
18260;DHT22;9256;52.236;5.712;2023-06-14T14:17:18;30.80;99.90
18260;DHT22;9256;52.236;5.712;2023-06-14T14:19:45;32.30;99.90
18260;DHT22;9256;52.236;5.712;2023-06-14T14:22:11;31.90;99.90
18260;DHT22;9256;52.236;5.712;2023-06-14T14:24:38;31.20;99.90
18260;DHT22;9256;52.236;5.712;2023-06-14T14:27:07;31.80;99.90
18260;DHT22;9256;52.236;5.712;2023-06-14T14:29:34;32.80;99.90
18260;DHT22;9256;52.236;5.712;2023-06-14T14:32:01;33.30;99.90
18260;DHT22;9256;52.236;5.712;2023-06-14T14:34:28;33.20;99.90
18260;DHT22;9256;52.236;5.712;2023-06-14T14:36:55;32.50;99.90
18260;DHT22;9256;52.236;5.712;2023-06-14T14:39:22;32.70;99.90
18260;DHT22;9256;52.236;5.712;2023-06-14T14:41:50;31.10;99.90
18260;DHT22;9256;52.236;5.712;2023-06-14T14:44:18;32.00;99.90
18260;DHT22;9256;52.236;5.712;2023-06-14T14:46:45;32.00;99.90
18260;DHT22;9256;52.236;5.712;2023-06-14T14:49:12;32.20;99.90
18260;DHT22;9256;52.236;5.712;2023-06-14T14:51:39;32.30;99.90
18260;DHT22;9256;52.236;5.712;2023-06-14T14:54:06;31.20;99.90
18260;DHT22;9256;52.236;5.712;2023-06-14T14:56:33;31.10;99.90
18260;DHT22;9256;52.236;5.712;2023-06-14T14:59:00;29.90;99.90
18260;DHT22;9256;52.236;5.712;2023-06-14T15:01:29;29.00;99.90
18260;DHT22;9256;52.236;5.712;2023-06-14T15:03:56;28.50;99.90
18260;DHT22;9256;52.236;5.712;2023-06-14T15:06:23;28.70;99.90
18260;DHT22;9256;52.236;5.712;2023-06-14T15:08:50;29.50;99.90
18260;DHT22;9256;52.236;5.712;2023-06-14T15:11:17;30.30;99.90
18260;DHT22;9256;52.236;5.712;2023-06-14T15:13:44;30.80;99.90
18260;DHT22;9256;52.236;5.712;2023-06-14T15:16:11;31.40;99.90
18260;DHT22;9256;52.236;5.712;2023-06-14T15:18:46;32.00;99.90
18260;DHT22;9256;52.236;5.712;2023-06-14T15:21:13;31.50;99.90
18260;DHT22;9256;52.236;5.712;2023-06-14T15:23:40;30.20;99.90
18260;DHT22;9256;52.236;5.712;2023-06-14T15:26:07;29.40;99.90
18260;DHT22;9256;52.236;5.712;2023-06-14T15:28:34;30.20;99.90
18260;DHT22;9256;52.236;5.712;2023-06-14T15:31:01;30.00;99.90
18260;DHT22;9256;52.236;5.712;2023-06-14T15:33:28;30.50;99.90
18260;DHT22;9256;52.236;5.712;2023-06-14T15:35:56;30.90;99.90
18260;DHT22;9256;52.236;5.712;2023-06-14T15:38:23;32.10;99.90
18260;DHT22;9256;52.236;5.712;2023-06-14T15:40:50;31.20;99.90
18260;DHT22;9256;52.236;5.712;2023-06-14T15:43:17;30.50;99.90
18260;DHT22;9256;52.236;5.712;2023-06-14T15:45:44;29.10;99.90
18260;DHT22;9256;52.236;5.712;2023-06-14T15:48:11;28.70;99.90
18260;DHT22;9256;52.236;5.712;2023-06-14T15:50:38;28.20;99.90